LEVD/VLL METAR and TAF weather

Enter ICAO airport designator
Station Type Date Time Source
LEVD METAR 2022/01/29 09:30 UTC NOAA

LEVD 290930Z 08007KT CAVOK 01/M03 Q1034


Station Type Date Time Source
LEVD Decoded METAR 2022/01/29 09:30 UTC NOAA

Valladolid / Villanubla, Spain (LEVD) 41-43N 004-51W 846M
Jan 29, 2022 - 04:30 AM EST / 2022.01.29 0930 UTC
Wind: from the E (080 degrees) at 8 MPH (7 KT):0
Visibility: greater than 7 mile(s):0
Temperature: 33 F (1 C)
Windchill: 26 F (-3 C):1
Dew Point: 26 F (-3 C)
Relative Humidity: 74%
Pressure (altimeter): 30.53 in. Hg (1034 hPa)
ob: LEVD 290930Z 08007KT CAVOK 01/M03 Q1034
cycle: 9

Station Type Date Time Source
LEVD TAF 2022/01/29 09:27 UTC NOAA

TAF LEVD 290800Z 2909/3009 05007KT CAVOK TX14/2915Z TNM04/3007Z

Example: see airport list